Brightwood, North Carolina
Current Conditions -  °F | °C
As of 7:41 PM on Monday 24 Nov 2014 (Local Time) from KBUY Reporting Station
Broken Clouds Broken Clouds  
Wind Chill: 67°   Ceiling: 1800
Heat Index: 67°   Visibility: 10mi
Dew Point: 61°   Wind: 13mph
Humidity: 81%   Direction: 190°S
Pressure: 29.86"   Gusts: 21mph
Location:  36.2136°N, 79.6775°W
Report Text: KBUY 250041Z AUTO 19011G18KT 10SM BKN018 19/16 A2986 RMK AO2 T01940161
Loading
Personal Weather Stations






























Interactive Weather Map New forecast layout! Learn more

10-Day Weather Forecast

Advertisements
Track Severe Weather on mobile